Weather forecast for El Rey

Venezuela, 310 m
N7.468, E-63.220


Sounding

Red line — air temperature ˚C.
Blue line — thermal bubble temperature ˚C.
Green line — dew point temperature ˚C.
Wind speed is in meters per second.

Table forecast

GFS 0.25˚ model

temp. wind gust humid. clouds prec. press. hpbl
Mon17 00:00 24 72.0 ene 4 11 85 98 0.0 1014 540
03:00 23 99.0 e 3 7 89 99 0.2 1013 514
06:00 23 105.0 ese 2 7 92 100 0.2 1014 484
09:00 24 119.0 ese 2 6 88 100 0.4 1015 487
12:00 29 137.0 se 2 3 66 92 0.5 1015 990
15:00 31 196.0 ssw 1 1 60 73 2.2 1011 1158
18:00 29 338.0 nnw 1 2 68 57 3.2 1011 513
21:00 24 24.0 nne 2 6 87 62 11.5 1013 163
 
Tue18 00:00 24 50.0 ne 3 9 92 100 4.6 1015 373
03:00 23 84.0 e 3 8 93 100 6.1 1013 507
06:00 23 92.0 e 2 5 94 100 0.0 1014 285
09:00 24 116.0 ese 3 7 88 98 0.1 1015 596
12:00 26 135.0 se 2 3 77 90 0.1 1015 695
15:00 30 78.0 ene 2 2 64 75 1.5 1011 1112
18:00 27 39.0 ne 3 5 80 28 9.1 1011 436
21:00 24 42.0 ne 3 8 89 64 17.9 1012 228
 
Wed19 00:00 23 98.0 e 4 11 92 100 2.8 1014 609
03:00 23 95.0 e 3 10 93 100 2.9 1013 743
06:00 23 108.0 ese 4 9 92 100 0.2 1013 715
09:00 24 141.0 se 3 7 89 100 0.3 1015 423
12:00 27 144.0 se 3 4 74 99 1.2 1015 920
15:00 29 204.0 ssw 1 2 67 88 2.7 1012 975
18:00 28 68.0 ene 1 2 71 67 1.2 1011 710
21:00 24 49.0 ne 2 4 92 84 2.6 1013 131
 
Thu20 00:00 24 66.0 ene 2 6 92 100 0.2 1015 243
03:00 23 91.0 e 2 7 95 86 0.2 1014 366
06:00 22 94.0 e 3 10 94 88 0.0 1014 577
09:00 24 95.0 e 5 10 85 72 0.0 1016 687
12:00 29 98.0 e 5 8 63 36 0.0 1016 1161
15:00 30 90.0 e 5 8 59 23 0.3 1013 1532
18:00 28 77.0 ene 4 7 68 8 0.9 1012 1015
21:00 24 81.0 e 4 12 78 5 1.0 1015 759
 
Fri21 00:00 24 85.0 e 4 11 85 34 0.0 1017 853
03:00 23 81.0 e 3 10 91 67 0.7 1015 881
06:00 22 89.0 e 3 10 92 98 0.5 1015 686
09:00 25 99.0 e 5 10 78 85 0.5 1016 1059
12:00 28 96.0 e 5 8 63 37 0.0 1017 1367
15:00 29 87.0 e 4 6 60 46 0.3 1013 1458
18:00 27 63.0 ene 4 7 74 69 1.9 1013 1082
21:00 24 74.0 ene 4 11 89 43 4.2 1015 643
 

0.008 s